F/V Carmalia — FMFK — position and weather

sailwx.info

Track history (hours):
 
Tides and Currents Weather Stations Pressure Air Temp Water Temp Dewpoint Dewpoint Depression Visibility Wind Speed Wind Dir Waves Ship Positions

F/V Carmalia

Last reported at 2016-Aug-22 22:33 UTC. Time now 2016-Aug-24 02:41 UTC.
Position N 47°47' W 006°12'.

Length 17 m.

Type: Fishing. MMSI: 228222900.

Date/timePositionNaut miles runAvg speedWind from/ knotsBaromVisibWave heightAir tempDewpointWater temp
2016-Aug-22 22:33N 47°47' W 006°12'9 9.1
2016-Aug-22 21:33N 47°46' W 005°58'11 8.9
2016-Aug-22 20:20N 47°45' W 005°42'7 8.5
2016-Aug-22 19:33N 47°44' W 005°32'8 8.4
2016-Aug-22 18:33N 47°44' W 005°20'9 9.1
2016-Aug-22 17:33N 47°42' W 005°06'10 8.8
2016-Aug-22 16:26N 47°42' W 004°52'46 9.5
2016-Aug-22 11:33N 47°40' W 003°43'10 9.8
2016-Aug-22 10:33N 47°41' W 003°29'6 5.5
2016-Aug-22 09:33N 47°44' W 003°22'0 0.0
2016-Aug-22 08:33N 47°44' W 003°22'0 0.1
2016-Aug-22 07:34N 47°44' W 003°22'  
2016-Aug-19 14:29N 47°44' W 003°22'0 0.0
2016-Aug-19 13:33N 47°44' W 003°22'0 0.0
2016-Aug-18 22:33N 47°44' W 003°22'0 0.1
2016-Aug-18 21:33N 47°44' W 003°22'0 0.1
2016-Aug-18 20:34N 47°44' W 003°22'0 0.0
2016-Aug-18 19:33N 47°44' W 003°22'0 0.0
2016-Aug-18 18:33N 47°44' W 003°22'0 0.0
2016-Aug-18 17:33N 47°44' W 003°22'0 0.0
2016-Aug-18 16:33N 47°44' W 003°22'0 0.0
2016-Aug-18 15:34N 47°44' W 003°22'3 3.4
2016-Aug-18 14:34N 47°40' W 003°23'8 8.1
2016-Aug-18 13:33N 47°33' W 003°28'9 8.9
2016-Aug-18 12:33N 47°26' W 003°37'9 8.8
2016-Aug-18 11:31N 47°20' W 003°46'36 8.7
2016-Aug-18 07:21N 46°53' W 004°22'16 8.4
2016-Aug-18 05:29N 46°41' W 004°37'  
2016-Aug-15 11:33N 45°39' W 004°32'43 1.3
2016-Aug-14 03:19N 46°17' W 005°02'3 3.4
2016-Aug-14 02:24N 46°20' W 005°03'4 4.4
2016-Aug-14 01:33N 46°17' W 004°59'9 0.8
2016-Aug-13 13:33N 46°09' W 005°04'1 0.7
2016-Aug-13 12:33N 46°09' W 005°03'1 0.6
2016-Aug-13 11:33N 46°09' W 005°02'1 1.5
2016-Aug-13 10:33N 46°07' W 005°02'1 1.2
2016-Aug-13 09:33N 46°08' W 004°60'1 0.8
2016-Aug-13 08:33N 46°08' W 004°59'1 0.8
2016-Aug-13 07:33N 46°08' W 004°58'1 0.7
2016-Aug-13 06:31N 46°08' W 004°57'0 0.5
2016-Aug-13 05:30N 46°08' W 004°56'0 0.3
2016-Aug-13 04:33N 46°08' W 004°56'3 2.2
2016-Aug-13 03:07N 46°11' W 004°56'2 3.5
2016-Aug-13 02:34N 46°13' W 004°55'4 4.2
2016-Aug-13 01:33N 46°11' W 004°50'1 1.0
2016-Aug-13 00:15N 46°11' W 004°48'2 2.8
2016-Aug-12 23:32N 46°13' W 004°48'  
Track history (hours):
 
Tides and Currents Weather Stations Pressure Air Temp Water Temp Dewpoint Dewpoint Depression Visibility Wind Speed Wind Dir Waves Ship Positions

F/V Carmalia

Last reported at 2016-Aug-22 22:33 UTC. Time now 2016-Aug-24 02:41 UTC.
Position N 47°47' W 006°12'.

Length 17 m.

Type: Fishing. MMSI: 228222900.

Date/timePositionNaut miles runAvg speedWind from/ knotsBaromVisibWave heightAir tempDewpointWater temp
2016-Aug-22 22:33N 47°47' W 006°12'9 9.1
2016-Aug-22 21:33N 47°46' W 005°58'11 8.9
2016-Aug-22 20:20N 47°45' W 005°42'7 8.5
2016-Aug-22 19:33N 47°44' W 005°32'8 8.4
2016-Aug-22 18:33N 47°44' W 005°20'9 9.1
2016-Aug-22 17:33N 47°42' W 005°06'10 8.8
2016-Aug-22 16:26N 47°42' W 004°52'46 9.5
2016-Aug-22 11:33N 47°40' W 003°43'10 9.8
2016-Aug-22 10:33N 47°41' W 003°29'6 5.5
2016-Aug-22 09:33N 47°44' W 003°22'0 0.0
2016-Aug-22 08:33N 47°44' W 003°22'0 0.1
2016-Aug-22 07:34N 47°44' W 003°22'  
2016-Aug-19 14:29N 47°44' W 003°22'0 0.0
2016-Aug-19 13:33N 47°44' W 003°22'0 0.0
2016-Aug-18 22:33N 47°44' W 003°22'0 0.1
2016-Aug-18 21:33N 47°44' W 003°22'0 0.1
2016-Aug-18 20:34N 47°44' W 003°22'0 0.0
2016-Aug-18 19:33N 47°44' W 003°22'0 0.0
2016-Aug-18 18:33N 47°44' W 003°22'0 0.0
2016-Aug-18 17:33N 47°44' W 003°22'0 0.0
2016-Aug-18 16:33N 47°44' W 003°22'0 0.0
2016-Aug-18 15:34N 47°44' W 003°22'3 3.4
2016-Aug-18 14:34N 47°40' W 003°23'8 8.1
2016-Aug-18 13:33N 47°33' W 003°28'9 8.9
2016-Aug-18 12:33N 47°26' W 003°37'9 8.8
2016-Aug-18 11:31N 47°20' W 003°46'36 8.7
2016-Aug-18 07:21N 46°53' W 004°22'16 8.4
2016-Aug-18 05:29N 46°41' W 004°37'  
2016-Aug-15 11:33N 45°39' W 004°32'43 1.3
2016-Aug-14 03:19N 46°17' W 005°02'3 3.4
2016-Aug-14 02:24N 46°20' W 005°03'4 4.4
2016-Aug-14 01:33N 46°17' W 004°59'9 0.8
2016-Aug-13 13:33N 46°09' W 005°04'1 0.7
2016-Aug-13 12:33N 46°09' W 005°03'1 0.6
2016-Aug-13 11:33N 46°09' W 005°02'1 1.5
2016-Aug-13 10:33N 46°07' W 005°02'1 1.2
2016-Aug-13 09:33N 46°08' W 004°60'1 0.8
2016-Aug-13 08:33N 46°08' W 004°59'1 0.8
2016-Aug-13 07:33N 46°08' W 004°58'1 0.7
2016-Aug-13 06:31N 46°08' W 004°57'0 0.5
2016-Aug-13 05:30N 46°08' W 004°56'0 0.3
2016-Aug-13 04:33N 46°08' W 004°56'3 2.2
2016-Aug-13 03:07N 46°11' W 004°56'2 3.5
2016-Aug-13 02:34N 46°13' W 004°55'4 4.2
2016-Aug-13 01:33N 46°11' W 004°50'1 1.0
2016-Aug-13 00:15N 46°11' W 004°48'2 2.8
2016-Aug-12 23:32N 46°13' W 004°48'  

Dump ship's entire track history